• Join FlightAware (Why Join?)
  • Login
  • US Flag 
05:02PM EDT


 

Airport Tracker/Info


-or-


 

Live Flight TrackerFlight Track Log ✈ UAL3835 ✈ 10-Jun-2014 ✈ KCWA - KORD

Flight Track Log - Related Links

Times and Time Zones

All times are in EDT time to prevent confusion due to time zone crossing. See the UAL3835 flight status page for this flight to view local times or setup timezone preferences in your user account.

Time Position Orientation Groundspeed Altitude Reporting Facility
EDT Latitude Longitude Course Direction KTS MPH feet Rate Location/Type
07:06AM 44.7853 -89.6361 145° Southeast 137 158 2,300  Level Minneapolis Center
07:07AM 44.7436 -89.5956 145° Southeast 194 223 3,900 1,680 Climbing Minneapolis Center
07:08AM 44.6972 -89.5442 142° Southeast 219 252 5,800 1,980 Climbing Minneapolis Center
07:09AM 44.6378 -89.4769 141° Southeast 259 298 8,000 2,220 Climbing Minneapolis Center
07:10AM 44.5786 -89.4106 141° Southeast 276 318 10,300 1,500 Climbing Minneapolis Center
07:11AM 44.5081 -89.3300 141° Southeast 309 356 11,100 1,140 Climbing Minneapolis Center
07:12AM 44.4347 -89.2444 140° Southeast 347 399 12,700 1,620 Climbing Minneapolis Center
07:13AM 44.3536 -89.1531 141° Southeast 353 406 14,400 1,500 Climbing Minneapolis Center
07:14AM 44.2789 -89.0686 141° Southeast 354 407 15,800 1,320 Climbing Minneapolis Center
07:15AM 44.2000 -88.9806 141° Southeast 371 427 17,100 1,140 Climbing Minneapolis Center
07:16AM 44.1197 -88.8914 141° Southeast 371 427 18,200 1,200 Climbing Minneapolis Center
07:17AM 44.0708 -88.8372 141° Southeast 369 425 19,000 240 Climbing Chicago Center
07:18AM 43.9864 -88.7408 141° Southeast 390 449 18,600 -1,440 Descending Chicago Center
07:19AM 43.8992 -88.6458 142° Southeast 399 459 16,100 -1,860 Descending Chicago Center
07:20AM 43.8192 -88.5583 142° Southeast 373 429 14,900 -1,140 Descending Chicago Center
07:21AM 43.7389 -88.4703 142° Southeast 368 423 13,800 -960 Descending Chicago Center
07:22AM 43.6575 -88.3814 142° Southeast 370 426 13,000 -420 Descending Chicago Center
07:23AM 43.5756 -88.2925 142° Southeast 370 426 13,000  Level Chicago Center
07:24AM 43.4936 -88.2025 141° Southeast 370 426 13,000 -540 Level Chicago Center
07:25AM 43.3847 -88.1247 153° Southeast 371 427 11,900 -1,020 Descending Chicago Center
07:26AM 43.2811 -88.0961 169° South 373 429 11,000 -480 Descending Chicago Center
07:27AM 43.1792 -88.0678 169° South 373 429 11,000  Level Chicago Center
07:28AM 43.0811 -88.0969 192° South 374 430 11,000  Level Chicago Center
07:29AM 42.9889 -88.1661 209° Southwest 376 433 11,000  Level Chicago Center
07:30AM 42.8983 -88.2361 210° Southwest 375 432 11,000 -300 Level Chicago Center
07:31AM 42.8111 -88.2564 190° South 314 361 10,500 -960 Descending Chicago Center
07:32AM 42.7292 -88.2586 181° South 294 338 9,100 -1,260 Descending Chicago Center
07:33AM 42.6511 -88.2608 181° South 283 326 8,000 -540 Descending Chicago Center
07:34AM 42.5761 -88.2600 180° South 269 310 8,000 -60 Level Chicago Center
07:35AM 42.4817 -88.2636 182° South 277 319 7,900 -540 Descending Chicago Center
07:36AM 42.4072 -88.2656 181° South 272 313 7,000 -900 Descending Chicago Center
07:37AM 42.3306 -88.2664 180° South 269 310 6,100 -540 Descending Chicago Center
07:38AM 42.2561 -88.2683 181° South 268 308 6,000 -60 Descending Chicago Center
07:39AM 42.1781 -88.2711 182° South 264 304 6,000 -120 Level Chicago Center
07:40AM 42.1128 -88.2500 167° South 237 273 5,800 -600 Descending Chicago Center
07:41AM 42.0567 -88.2272 163° South 208 239 4,800 -960 Descending Chicago Center
07:42AM 42.0161 -88.1814 140° Southeast 190 219 3,900 -840 Descending Chicago Center
07:43AM 42.0003 -88.1242 110° East 165 190 3,100 -720 Descending Chicago Center
07:44AM 42.0019 -88.0586 88° East 165 190 2,500 -600 Descending Chicago Center
07:45AM 42.0017 -88.0025 90° East 153 176 1,900 -660 Descending Chicago Center
07:46AM 42.0017 -87.9561 90° East 131 151 1,200 -540 Descending Chicago Center
07:47AM 42.0022 -87.9089 89° East 131 151 800 -420 Descending Chicago Center